sensor_id;sensor_type;location;lat;lon;timestamp;P1;durP1;ratioP1;P2;durP2;ratioP2
2041;SDS011;1026;51.460;7.252;2022-11-20T00:02:22;14.00;;;9.43;;
2041;SDS011;1026;51.460;7.252;2022-11-20T00:04:48;15.03;;;10.23;;
2041;SDS011;1026;51.460;7.252;2022-11-20T00:07:14;10.00;;;8.03;;
2041;SDS011;1026;51.460;7.252;2022-11-20T00:09:40;14.00;;;10.03;;
2041;SDS011;1026;51.460;7.252;2022-11-20T00:12:05;13.43;;;9.90;;
2041;SDS011;1026;51.460;7.252;2022-11-20T00:14:31;13.60;;;9.90;;
2041;SDS011;1026;51.460;7.252;2022-11-20T00:16:57;13.43;;;9.70;;
2041;SDS011;1026;51.460;7.252;2022-11-20T00:19:23;11.67;;;9.37;;
2041;SDS011;1026;51.460;7.252;2022-11-20T00:21:48;15.07;;;9.23;;
2041;SDS011;1026;51.460;7.252;2022-11-20T00:24:17;10.80;;;8.57;;
2041;SDS011;1026;51.460;7.252;2022-11-20T00:26:43;12.30;;;9.73;;
2041;SDS011;1026;51.460;7.252;2022-11-20T00:29:09;12.63;;;10.30;;
2041;SDS011;1026;51.460;7.252;2022-11-20T00:31:35;12.40;;;9.50;;
2041;SDS011;1026;51.460;7.252;2022-11-20T00:34:01;12.53;;;9.63;;
2041;SDS011;1026;51.460;7.252;2022-11-20T00:36:27;14.30;;;9.93;;
2041;SDS011;1026;51.460;7.252;2022-11-20T00:38:54;11.67;;;9.67;;
2041;SDS011;1026;51.460;7.252;2022-11-20T00:41:22;13.70;;;9.93;;
2041;SDS011;1026;51.460;7.252;2022-11-20T00:43:48;12.80;;;9.90;;
2041;SDS011;1026;51.460;7.252;2022-11-20T00:46:15;14.33;;;9.70;;
2041;SDS011;1026;51.460;7.252;2022-11-20T00:48:43;9.47;;;8.40;;
2041;SDS011;1026;51.460;7.252;2022-11-20T00:51:09;14.00;;;10.00;;
2041;SDS011;1026;51.460;7.252;2022-11-20T00:53:37;13.00;;;9.73;;
2041;SDS011;1026;51.460;7.252;2022-11-20T00:56:03;14.17;;;10.60;;
2041;SDS011;1026;51.460;7.252;2022-11-20T00:58:33;14.67;;;9.33;;
2041;SDS011;1026;51.460;7.252;2022-11-20T01:01:04;13.50;;;9.40;;
2041;SDS011;1026;51.460;7.252;2022-11-20T01:03:35;9.17;;;8.27;;
2041;SDS011;1026;51.460;7.252;2022-11-20T01:06:05;13.30;;;8.67;;
2041;SDS011;1026;51.460;7.252;2022-11-20T01:08:33;11.40;;;9.23;;
2041;SDS011;1026;51.460;7.252;2022-11-20T01:11:02;15.20;;;10.70;;
2041;SDS011;1026;51.460;7.252;2022-11-20T01:13:29;10.03;;;8.40;;
2041;SDS011;1026;51.460;7.252;2022-11-20T01:18:40;12.57;;;9.50;;
2041;SDS011;1026;51.460;7.252;2022-11-20T01:21:08;12.80;;;8.90;;
2041;SDS011;1026;51.460;7.252;2022-11-20T01:23:37;12.53;;;9.47;;
2041;SDS011;1026;51.460;7.252;2022-11-20T01:26:04;11.47;;;9.30;;
2041;SDS011;1026;51.460;7.252;2022-11-20T01:28:32;13.03;;;9.77;;
2041;SDS011;1026;51.460;7.252;2022-11-20T01:30:58;14.50;;;10.07;;
2041;SDS011;1026;51.460;7.252;2022-11-20T01:33:25;11.87;;;9.47;;
2041;SDS011;1026;51.460;7.252;2022-11-20T01:35:51;11.73;;;8.77;;
2041;SDS011;1026;51.460;7.252;2022-11-20T01:38:21;11.53;;;8.07;;
2041;SDS011;1026;51.460;7.252;2022-11-20T01:40:55;11.90;;;9.03;;
2041;SDS011;1026;51.460;7.252;2022-11-20T01:43:21;16.70;;;10.67;;
2041;SDS011;1026;51.460;7.252;2022-11-20T01:48:33;13.73;;;8.43;;
2041;SDS011;1026;51.460;7.252;2022-11-20T01:51:03;14.60;;;10.03;;
2041;SDS011;1026;51.460;7.252;2022-11-20T01:53:59;12.60;;;9.17;;
2041;SDS011;1026;51.460;7.252;2022-11-20T01:56:28;11.90;;;9.53;;
2041;SDS011;1026;51.460;7.252;2022-11-20T01:59:19;16.13;;;10.20;;
2041;SDS011;1026;51.460;7.252;2022-11-20T02:01:53;16.17;;;10.90;;
2041;SDS011;1026;51.460;7.252;2022-11-20T02:04:20;12.30;;;9.63;;
2041;SDS011;1026;51.460;7.252;2022-11-20T02:06:51;11.83;;;9.80;;
2041;SDS011;1026;51.460;7.252;2022-11-20T02:09:24;12.60;;;9.10;;
2041;SDS011;1026;51.460;7.252;2022-11-20T02:11:49;14.50;;;11.43;;
2041;SDS011;1026;51.460;7.252;2022-11-20T02:14:15;11.53;;;9.20;;
2041;SDS011;1026;51.460;7.252;2022-11-20T02:16:43;12.33;;;9.13;;
2041;SDS011;1026;51.460;7.252;2022-11-20T02:19:15;12.33;;;9.23;;
2041;SDS011;1026;51.460;7.252;2022-11-20T02:22:00;13.67;;;10.10;;
2041;SDS011;1026;51.460;7.252;2022-11-20T02:24:27;10.13;;;8.50;;
2041;SDS011;1026;51.460;7.252;2022-11-20T02:26:54;16.37;;;9.97;;
2041;SDS011;1026;51.460;7.252;2022-11-20T02:29:32;14.90;;;9.83;;
2041;SDS011;1026;51.460;7.252;2022-11-20T02:32:04;13.83;;;9.83;;
2041;SDS011;1026;51.460;7.252;2022-11-20T02:34:29;13.47;;;9.20;;
2041;SDS011;1026;51.460;7.252;2022-11-20T02:36:56;12.77;;;10.00;;
2041;SDS011;1026;51.460;7.252;2022-11-20T02:39:31;16.83;;;9.90;;
2041;SDS011;1026;51.460;7.252;2022-11-20T02:41:57;15.00;;;10.27;;
2041;SDS011;1026;51.460;7.252;2022-11-20T02:44:25;13.23;;;10.30;;
2041;SDS011;1026;51.460;7.252;2022-11-20T02:46:51;14.80;;;9.90;;
2041;SDS011;1026;51.460;7.252;2022-11-20T02:49:17;14.73;;;10.03;;
2041;SDS011;1026;51.460;7.252;2022-11-20T02:51:42;13.73;;;9.17;;
2041;SDS011;1026;51.460;7.252;2022-11-20T02:54:08;12.07;;;8.50;;
2041;SDS011;1026;51.460;7.252;2022-11-20T02:56:34;14.00;;;9.90;;
2041;SDS011;1026;51.460;7.252;2022-11-20T02:59:02;11.67;;;9.23;;
2041;SDS011;1026;51.460;7.252;2022-11-20T03:01:28;11.57;;;8.47;;
2041;SDS011;1026;51.460;7.252;2022-11-20T03:03:53;14.23;;;9.73;;
2041;SDS011;1026;51.460;7.252;2022-11-20T03:06:19;13.20;;;8.80;;
2041;SDS011;1026;51.460;7.252;2022-11-20T03:08:45;13.27;;;8.60;;
2041;SDS011;1026;51.460;7.252;2022-11-20T03:11:11;11.77;;;9.53;;
2041;SDS011;1026;51.460;7.252;2022-11-20T03:13:36;14.27;;;9.60;;
2041;SDS011;1026;51.460;7.252;2022-11-20T03:16:06;12.80;;;9.30;;
2041;SDS011;1026;51.460;7.252;2022-11-20T03:18:33;14.30;;;9.43;;
2041;SDS011;1026;51.460;7.252;2022-11-20T03:20:59;11.13;;;9.20;;
2041;SDS011;1026;51.460;7.252;2022-11-20T03:23:25;13.23;;;10.17;;
2041;SDS011;1026;51.460;7.252;2022-11-20T03:25:51;10.80;;;8.53;;
2041;SDS011;1026;51.460;7.252;2022-11-20T03:28:17;12.50;;;9.73;;
2041;SDS011;1026;51.460;7.252;2022-11-20T03:30:42;12.43;;;9.77;;
2041;SDS011;1026;51.460;7.252;2022-11-20T03:33:08;12.40;;;9.73;;
2041;SDS011;1026;51.460;7.252;2022-11-20T03:35:34;10.17;;;9.00;;
2041;SDS011;1026;51.460;7.252;2022-11-20T03:37:59;12.70;;;8.80;;
2041;SDS011;1026;51.460;7.252;2022-11-20T03:40:25;10.10;;;8.73;;
2041;SDS011;1026;51.460;7.252;2022-11-20T03:42:50;16.27;;;9.27;;
2041;SDS011;1026;51.460;7.252;2022-11-20T03:45:17;11.70;;;9.10;;
2041;SDS011;1026;51.460;7.252;2022-11-20T03:47:43;13.20;;;9.37;;
2041;SDS011;1026;51.460;7.252;2022-11-20T03:50:10;14.17;;;9.40;;
2041;SDS011;1026;51.460;7.252;2022-11-20T03:52:39;14.40;;;9.40;;
2041;SDS011;1026;51.460;7.252;2022-11-20T03:55:05;13.83;;;9.83;;
2041;SDS011;1026;51.460;7.252;2022-11-20T03:57:31;12.27;;;9.33;;
2041;SDS011;1026;51.460;7.252;2022-11-20T03:59:57;12.50;;;10.23;;
2041;SDS011;1026;51.460;7.252;2022-11-20T04:02:23;10.97;;;7.60;;
2041;SDS011;1026;51.460;7.252;2022-11-20T04:04:49;11.80;;;9.03;;
2041;SDS011;1026;51.460;7.252;2022-11-20T04:07:17;11.67;;;10.50;;
2041;SDS011;1026;51.460;7.252;2022-11-20T04:09:43;10.00;;;7.93;;
2041;SDS011;1026;51.460;7.252;2022-11-20T04:12:09;9.37;;;8.43;;
2041;SDS011;1026;51.460;7.252;2022-11-20T04:14:34;11.23;;;8.90;;
2041;SDS011;1026;51.460;7.252;2022-11-20T04:17:00;13.40;;;8.27;;
2041;SDS011;1026;51.460;7.252;2022-11-20T04:19:26;13.20;;;8.70;;
2041;SDS011;1026;51.460;7.252;2022-11-20T04:21:52;11.53;;;7.53;;
2041;SDS011;1026;51.460;7.252;2022-11-20T04:24:18;9.70;;;8.63;;
2041;SDS011;1026;51.460;7.252;2022-11-20T04:26:44;14.27;;;9.50;;
2041;SDS011;1026;51.460;7.252;2022-11-20T04:29:10;11.17;;;8.00;;
2041;SDS011;1026;51.460;7.252;2022-11-20T04:31:37;11.00;;;7.70;;
2041;SDS011;1026;51.460;7.252;2022-11-20T04:34:03;13.70;;;8.60;;
2041;SDS011;1026;51.460;7.252;2022-11-20T04:36:31;12.17;;;9.87;;
2041;SDS011;1026;51.460;7.252;2022-11-20T04:38:58;10.57;;;7.43;;
2041;SDS011;1026;51.460;7.252;2022-11-20T04:41:27;12.73;;;8.33;;
2041;SDS011;1026;51.460;7.252;2022-11-20T04:43:56;11.70;;;9.13;;
2041;SDS011;1026;51.460;7.252;2022-11-20T04:46:27;11.40;;;8.33;;
2041;SDS011;1026;51.460;7.252;2022-11-20T04:48:54;10.43;;;7.97;;
2041;SDS011;1026;51.460;7.252;2022-11-20T04:51:20;11.83;;;8.67;;
2041;SDS011;1026;51.460;7.252;2022-11-20T04:53:48;10.17;;;8.73;;
2041;SDS011;1026;51.460;7.252;2022-11-20T04:56:14;13.17;;;9.07;;
2041;SDS011;1026;51.460;7.252;2022-11-20T04:58:40;9.03;;;7.73;;
2041;SDS011;1026;51.460;7.252;2022-11-20T05:01:07;11.20;;;8.27;;
2041;SDS011;1026;51.460;7.252;2022-11-20T05:03:43;10.90;;;8.47;;
2041;SDS011;1026;51.460;7.252;2022-11-20T05:06:10;12.93;;;8.63;;
2041;SDS011;1026;51.460;7.252;2022-11-20T05:08:38;10.60;;;7.73;;
2041;SDS011;1026;51.460;7.252;2022-11-20T05:11:04;11.70;;;7.70;;
2041;SDS011;1026;51.460;7.252;2022-11-20T05:13:33;10.67;;;8.90;;
2041;SDS011;1026;51.460;7.252;2022-11-20T05:16:03;12.60;;;7.80;;
2041;SDS011;1026;51.460;7.252;2022-11-20T05:18:31;11.80;;;8.10;;
2041;SDS011;1026;51.460;7.252;2022-11-20T05:20:58;8.23;;;6.50;;
2041;SDS011;1026;51.460;7.252;2022-11-20T05:23:25;10.40;;;8.87;;
2041;SDS011;1026;51.460;7.252;2022-11-20T05:25:52;13.63;;;8.03;;
2041;SDS011;1026;51.460;7.252;2022-11-20T05:28:19;9.57;;;7.80;;
2041;SDS011;1026;51.460;7.252;2022-11-20T05:30:45;10.87;;;8.33;;
2041;SDS011;1026;51.460;7.252;2022-11-20T05:33:14;10.40;;;6.73;;
2041;SDS011;1026;51.460;7.252;2022-11-20T05:35:40;9.13;;;7.63;;
2041;SDS011;1026;51.460;7.252;2022-11-20T05:38:06;12.53;;;8.53;;
2041;SDS011;1026;51.460;7.252;2022-11-20T05:40:32;9.87;;;8.80;;
2041;SDS011;1026;51.460;7.252;2022-11-20T05:43:03;8.53;;;7.50;;
2041;SDS011;1026;51.460;7.252;2022-11-20T05:45:28;11.00;;;8.63;;
2041;SDS011;1026;51.460;7.252;2022-11-20T05:47:57;14.17;;;8.60;;
2041;SDS011;1026;51.460;7.252;2022-11-20T05:50:25;11.10;;;8.33;;
2041;SDS011;1026;51.460;7.252;2022-11-20T05:52:51;9.63;;;7.27;;
2041;SDS011;1026;51.460;7.252;2022-11-20T05:55:16;10.60;;;8.40;;
2041;SDS011;1026;51.460;7.252;2022-11-20T05:57:42;8.23;;;7.37;;
2041;SDS011;1026;51.460;7.252;2022-11-20T06:00:08;12.13;;;8.47;;
2041;SDS011;1026;51.460;7.252;2022-11-20T06:02:34;9.20;;;7.97;;
2041;SDS011;1026;51.460;7.252;2022-11-20T06:05:01;12.47;;;9.00;;
2041;SDS011;1026;51.460;7.252;2022-11-20T06:07:26;16.27;;;8.27;;
2041;SDS011;1026;51.460;7.252;2022-11-20T06:09:52;11.03;;;7.13;;
2041;SDS011;1026;51.460;7.252;2022-11-20T06:12:17;8.93;;;7.80;;
2041;SDS011;1026;51.460;7.252;2022-11-20T06:14:43;10.13;;;7.47;;
2041;SDS011;1026;51.460;7.252;2022-11-20T06:17:09;10.50;;;8.00;;
2041;SDS011;1026;51.460;7.252;2022-11-20T06:19:34;10.57;;;8.00;;
2041;SDS011;1026;51.460;7.252;2022-11-20T06:22:00;8.17;;;7.20;;
2041;SDS011;1026;51.460;7.252;2022-11-20T06:24:29;7.63;;;6.87;;
2041;SDS011;1026;51.460;7.252;2022-11-20T06:26:54;11.53;;;8.80;;
2041;SDS011;1026;51.460;7.252;2022-11-20T06:29:20;9.33;;;8.00;;
2041;SDS011;1026;51.460;7.252;2022-11-20T06:31:52;11.00;;;7.30;;
2041;SDS011;1026;51.460;7.252;2022-11-20T06:34:19;8.23;;;7.37;;
2041;SDS011;1026;51.460;7.252;2022-11-20T06:36:44;10.77;;;7.63;;
2041;SDS011;1026;51.460;7.252;2022-11-20T06:39:10;11.43;;;7.40;;
2041;SDS011;1026;51.460;7.252;2022-11-20T06:41:36;12.37;;;8.00;;
2041;SDS011;1026;51.460;7.252;2022-11-20T06:44:04;10.83;;;7.67;;
2041;SDS011;1026;51.460;7.252;2022-11-20T06:46:31;10.27;;;7.70;;
2041;SDS011;1026;51.460;7.252;2022-11-20T06:49:00;10.37;;;8.17;;
2041;SDS011;1026;51.460;7.252;2022-11-20T06:51:31;10.60;;;7.60;;
2041;SDS011;1026;51.460;7.252;2022-11-20T06:53:57;10.90;;;7.13;;
2041;SDS011;1026;51.460;7.252;2022-11-20T06:56:23;13.20;;;9.10;;
2041;SDS011;1026;51.460;7.252;2022-11-20T06:58:48;11.00;;;7.73;;
2041;SDS011;1026;51.460;7.252;2022-11-20T07:01:14;10.00;;;7.47;;
2041;SDS011;1026;51.460;7.252;2022-11-20T07:03:41;8.93;;;8.03;;
2041;SDS011;1026;51.460;7.252;2022-11-20T07:06:08;11.20;;;8.17;;
2041;SDS011;1026;51.460;7.252;2022-11-20T07:08:34;10.23;;;8.10;;
2041;SDS011;1026;51.460;7.252;2022-11-20T07:11:01;9.03;;;8.07;;
2041;SDS011;1026;51.460;7.252;2022-11-20T07:13:29;9.50;;;8.10;;
2041;SDS011;1026;51.460;7.252;2022-11-20T07:15:59;8.67;;;7.47;;
2041;SDS011;1026;51.460;7.252;2022-11-20T07:18:26;10.87;;;7.10;;
2041;SDS011;1026;51.460;7.252;2022-11-20T07:21:01;8.50;;;7.10;;
2041;SDS011;1026;51.460;7.252;2022-11-20T07:23:36;7.53;;;6.30;;
2041;SDS011;1026;51.460;7.252;2022-11-20T07:26:03;7.60;;;6.30;;
2041;SDS011;1026;51.460;7.252;2022-11-20T07:28:30;10.97;;;7.00;;
2041;SDS011;1026;51.460;7.252;2022-11-20T07:30:56;12.10;;;8.27;;
2041;SDS011;1026;51.460;7.252;2022-11-20T07:33:22;8.63;;;6.83;;
2041;SDS011;1026;51.460;7.252;2022-11-20T07:35:47;9.37;;;6.70;;
2041;SDS011;1026;51.460;7.252;2022-11-20T07:38:13;11.23;;;7.60;;
2041;SDS011;1026;51.460;7.252;2022-11-20T07:40:39;10.37;;;7.40;;
2041;SDS011;1026;51.460;7.252;2022-11-20T07:43:04;12.30;;;7.90;;
2041;SDS011;1026;51.460;7.252;2022-11-20T07:45:30;8.27;;;7.27;;
2041;SDS011;1026;51.460;7.252;2022-11-20T07:47:56;8.93;;;8.03;;
2041;SDS011;1026;51.460;7.252;2022-11-20T07:50:21;9.47;;;7.30;;
2041;SDS011;1026;51.460;7.252;2022-11-20T07:52:47;11.27;;;7.77;;
2041;SDS011;1026;51.460;7.252;2022-11-20T07:55:13;9.57;;;7.00;;
2041;SDS011;1026;51.460;7.252;2022-11-20T07:57:40;8.43;;;7.47;;
2041;SDS011;1026;51.460;7.252;2022-11-20T08:00:15;9.60;;;6.20;;
2041;SDS011;1026;51.460;7.252;2022-11-20T08:02:50;10.97;;;7.93;;
2041;SDS011;1026;51.460;7.252;2022-11-20T08:05:17;8.73;;;7.43;;
2041;SDS011;1026;51.460;7.252;2022-11-20T08:07:43;8.70;;;7.00;;
2041;SDS011;1026;51.460;7.252;2022-11-20T08:10:14;7.77;;;6.70;;
2041;SDS011;1026;51.460;7.252;2022-11-20T08:12:45;9.03;;;8.10;;
2041;SDS011;1026;51.460;7.252;2022-11-20T08:15:27;9.27;;;7.10;;
2041;SDS011;1026;51.460;7.252;2022-11-20T08:17:58;8.47;;;7.30;;
2041;SDS011;1026;51.460;7.252;2022-11-20T08:20:29;12.83;;;7.80;;
2041;SDS011;1026;51.460;7.252;2022-11-20T08:23:00;9.30;;;7.30;;
2041;SDS011;1026;51.460;7.252;2022-11-20T08:25:29;12.10;;;7.77;;
2041;SDS011;1026;51.460;7.252;2022-11-20T08:27:58;9.70;;;7.70;;
2041;SDS011;1026;51.460;7.252;2022-11-20T08:30:25;7.60;;;6.67;;
2041;SDS011;1026;51.460;7.252;2022-11-20T08:32:51;9.70;;;7.90;;
2041;SDS011;1026;51.460;7.252;2022-11-20T08:35:18;10.00;;;7.67;;
2041;SDS011;1026;51.460;7.252;2022-11-20T08:37:46;8.77;;;7.40;;
2041;SDS011;1026;51.460;7.252;2022-11-20T08:40:12;10.90;;;8.10;;
2041;SDS011;1026;51.460;7.252;2022-11-20T08:42:45;9.03;;;7.40;;
2041;SDS011;1026;51.460;7.252;2022-11-20T08:45:12;11.90;;;7.20;;
2041;SDS011;1026;51.460;7.252;2022-11-20T08:47:38;17.70;;;8.80;;
2041;SDS011;1026;51.460;7.252;2022-11-20T08:50:04;8.20;;;7.40;;
2041;SDS011;1026;51.460;7.252;2022-11-20T08:52:30;9.93;;;7.13;;
2041;SDS011;1026;51.460;7.252;2022-11-20T08:54:55;8.60;;;7.70;;
2041;SDS011;1026;51.460;7.252;2022-11-20T08:57:21;10.70;;;8.90;;
2041;SDS011;1026;51.460;7.252;2022-11-20T08:59:47;10.80;;;7.67;;
2041;SDS011;1026;51.460;7.252;2022-11-20T09:02:12;8.77;;;7.87;;
2041;SDS011;1026;51.460;7.252;2022-11-20T09:04:38;10.77;;;9.30;;
2041;SDS011;1026;51.460;7.252;2022-11-20T09:07:04;12.73;;;9.17;;
2041;SDS011;1026;51.460;7.252;2022-11-20T09:09:29;10.60;;;7.40;;
2041;SDS011;1026;51.460;7.252;2022-11-20T09:11:55;8.50;;;7.20;;
2041;SDS011;1026;51.460;7.252;2022-11-20T09:14:21;8.50;;;7.60;;
2041;SDS011;1026;51.460;7.252;2022-11-20T09:16:49;8.30;;;7.30;;
2041;SDS011;1026;51.460;7.252;2022-11-20T09:19:15;14.63;;;8.53;;
2041;SDS011;1026;51.460;7.252;2022-11-20T09:21:41;10.10;;;7.30;;
2041;SDS011;1026;51.460;7.252;2022-11-20T09:24:06;9.77;;;7.70;;
2041;SDS011;1026;51.460;7.252;2022-11-20T09:26:33;8.50;;;7.60;;
2041;SDS011;1026;51.460;7.252;2022-11-20T09:29:04;12.60;;;9.20;;
2041;SDS011;1026;51.460;7.252;2022-11-20T09:31:30;10.20;;;7.97;;
2041;SDS011;1026;51.460;7.252;2022-11-20T09:33:56;11.20;;;8.23;;
2041;SDS011;1026;51.460;7.252;2022-11-20T09:36:23;10.40;;;7.90;;
2041;SDS011;1026;51.460;7.252;2022-11-20T09:38:49;11.53;;;7.60;;
2041;SDS011;1026;51.460;7.252;2022-11-20T09:52:22;8.93;;;6.77;;
2041;SDS011;1026;51.460;7.252;2022-11-20T09:54:57;10.97;;;8.47;;
2041;SDS011;1026;51.460;7.252;2022-11-20T09:57:36;10.60;;;7.20;;
2041;SDS011;1026;51.460;7.252;2022-11-20T10:00:11;7.33;;;6.33;;
2041;SDS011;1026;51.460;7.252;2022-11-20T10:07:40;7.60;;;6.67;;
2041;SDS011;1026;51.460;7.252;2022-11-20T10:27:51;9.70;;;6.57;;
2041;SDS011;1026;51.460;7.252;2022-11-20T10:30:09;7.43;;;6.60;;
2041;SDS011;1026;51.460;7.252;2022-11-20T10:32:47;10.13;;;7.40;;
2041;SDS011;1026;51.460;7.252;2022-11-20T10:37:44;10.67;;;8.13;;
2041;SDS011;1026;51.460;7.252;2022-11-20T10:40:20;11.70;;;8.27;;
2041;SDS011;1026;51.460;7.252;2022-11-20T10:42:56;8.60;;;6.20;;
2041;SDS011;1026;51.460;7.252;2022-11-20T10:45:45;10.17;;;7.83;;
2041;SDS011;1026;51.460;7.252;2022-11-20T10:48:21;8.67;;;6.33;;
2041;SDS011;1026;51.460;7.252;2022-11-20T10:50:52;9.13;;;7.47;;
2041;SDS011;1026;51.460;7.252;2022-11-20T10:53:50;11.30;;;7.27;;
2041;SDS011;1026;51.460;7.252;2022-11-20T10:56:23;7.83;;;6.20;;
2041;SDS011;1026;51.460;7.252;2022-11-20T10:59:02;8.40;;;5.83;;
2041;SDS011;1026;51.460;7.252;2022-11-20T11:04:55;8.20;;;6.40;;
2041;SDS011;1026;51.460;7.252;2022-11-20T11:07:25;10.90;;;7.17;;
2041;SDS011;1026;51.460;7.252;2022-11-20T11:09:58;13.17;;;7.93;;
2041;SDS011;1026;51.460;7.252;2022-11-20T11:12:24;7.53;;;6.77;;
2041;SDS011;1026;51.460;7.252;2022-11-20T11:14:53;10.20;;;6.80;;
2041;SDS011;1026;51.460;7.252;2022-11-20T11:17:21;9.13;;;7.03;;
2041;SDS011;1026;51.460;7.252;2022-11-20T11:19:58;7.80;;;7.00;;
2041;SDS011;1026;51.460;7.252;2022-11-20T11:22:25;9.40;;;6.07;;
2041;SDS011;1026;51.460;7.252;2022-11-20T11:24:56;8.53;;;6.80;;
2041;SDS011;1026;51.460;7.252;2022-11-20T11:27:25;8.30;;;7.03;;
2041;SDS011;1026;51.460;7.252;2022-11-20T11:29:50;9.50;;;5.97;;
2041;SDS011;1026;51.460;7.252;2022-11-20T11:32:29;12.13;;;7.40;;
2041;SDS011;1026;51.460;7.252;2022-11-20T11:35:03;12.53;;;8.17;;
2041;SDS011;1026;51.460;7.252;2022-11-20T11:37:33;9.03;;;6.80;;
2041;SDS011;1026;51.460;7.252;2022-11-20T11:40:00;6.77;;;6.00;;
2041;SDS011;1026;51.460;7.252;2022-11-20T11:42:34;9.60;;;6.80;;
2041;SDS011;1026;51.460;7.252;2022-11-20T11:45:00;7.47;;;6.33;;
2041;SDS011;1026;51.460;7.252;2022-11-20T11:47:36;9.90;;;6.57;;
2041;SDS011;1026;51.460;7.252;2022-11-20T11:52:48;8.80;;;6.57;;
2041;SDS011;1026;51.460;7.252;2022-11-20T11:58:11;13.07;;;7.33;;
2041;SDS011;1026;51.460;7.252;2022-11-20T12:00:58;6.40;;;5.30;;
2041;SDS011;1026;51.460;7.252;2022-11-20T12:03:36;12.73;;;6.63;;
2041;SDS011;1026;51.460;7.252;2022-11-20T12:06:06;6.63;;;4.40;;
2041;SDS011;1026;51.460;7.252;2022-11-20T12:08:41;8.70;;;7.30;;
2041;SDS011;1026;51.460;7.252;2022-11-20T12:11:37;8.67;;;6.23;;
2041;SDS011;1026;51.460;7.252;2022-11-20T12:17:03;6.90;;;5.53;;
2041;SDS011;1026;51.460;7.252;2022-11-20T12:19:42;7.90;;;6.00;;
2041;SDS011;1026;51.460;7.252;2022-11-20T12:25:07;8.60;;;6.40;;
2041;SDS011;1026;51.460;7.252;2022-11-20T12:28:00;6.53;;;5.57;;
2041;SDS011;1026;51.460;7.252;2022-11-20T12:33:46;9.57;;;7.30;;
2041;SDS011;1026;51.460;7.252;2022-11-20T12:36:19;10.27;;;7.53;;
2041;SDS011;1026;51.460;7.252;2022-11-20T12:41:47;8.70;;;5.82;;
2041;SDS011;1026;51.460;7.252;2022-11-20T12:47:39;6.60;;;5.80;;
2041;SDS011;1026;51.460;7.252;2022-11-20T12:50:31;8.30;;;6.17;;
2041;SDS011;1026;51.460;7.252;2022-11-20T12:58:39;5.10;;;4.37;;
2041;SDS011;1026;51.460;7.252;2022-11-20T13:01:28;6.60;;;5.90;;
2041;SDS011;1026;51.460;7.252;2022-11-20T13:04:08;4.47;;;4.07;;
2041;SDS011;1026;51.460;7.252;2022-11-20T13:06:38;6.13;;;4.80;;
2041;SDS011;1026;51.460;7.252;2022-11-20T13:09:08;6.40;;;5.30;;
2041;SDS011;1026;51.460;7.252;2022-11-20T13:19:27;6.57;;;4.60;;
2041;SDS011;1026;51.460;7.252;2022-11-20T13:21:54;6.13;;;4.77;;
2041;SDS011;1026;51.460;7.252;2022-11-20T13:24:22;10.00;;;5.10;;
2041;SDS011;1026;51.460;7.252;2022-11-20T13:27:04;8.50;;;5.87;;
2041;SDS011;1026;51.460;7.252;2022-11-20T13:29:30;8.20;;;5.10;;
2041;SDS011;1026;51.460;7.252;2022-11-20T13:32:04;8.73;;;6.83;;
2041;SDS011;1026;51.460;7.252;2022-11-20T13:37:33;5.77;;;4.17;;
2041;SDS011;1026;51.460;7.252;2022-11-20T13:40:24;5.50;;;4.40;;
2041;SDS011;1026;51.460;7.252;2022-11-20T13:42:54;5.07;;;4.37;;
2041;SDS011;1026;51.460;7.252;2022-11-20T13:45:27;14.63;;;9.73;;
2041;SDS011;1026;51.460;7.252;2022-11-20T13:47:56;6.33;;;5.53;;
2041;SDS011;1026;51.460;7.252;2022-11-20T13:50:40;7.80;;;6.00;;
2041;SDS011;1026;51.460;7.252;2022-11-20T13:56:21;6.13;;;4.77;;
2041;SDS011;1026;51.460;7.252;2022-11-20T13:59:15;6.50;;;4.50;;
2041;SDS011;1026;51.460;7.252;2022-11-20T14:02:14;7.10;;;4.77;;
2041;SDS011;1026;51.460;7.252;2022-11-20T14:04:59;7.37;;;4.90;;
2041;SDS011;1026;51.460;7.252;2022-11-20T14:07:44;6.47;;;5.00;;
2041;SDS011;1026;51.460;7.252;2022-11-20T14:12:53;6.80;;;5.37;;
2041;SDS011;1026;51.460;7.252;2022-11-20T14:15:28;7.90;;;5.40;;
2041;SDS011;1026;51.460;7.252;2022-11-20T14:17:56;7.10;;;5.27;;
2041;SDS011;1026;51.460;7.252;2022-11-20T14:20:24;9.93;;;7.80;;
2041;SDS011;1026;51.460;7.252;2022-11-20T14:22:53;7.50;;;5.40;;
2041;SDS011;1026;51.460;7.252;2022-11-20T14:25:20;5.47;;;4.67;;
2041;SDS011;1026;51.460;7.252;2022-11-20T14:27:54;6.80;;;4.70;;
2041;SDS011;1026;51.460;7.252;2022-11-20T14:30:25;5.53;;;4.93;;
2041;SDS011;1026;51.460;7.252;2022-11-20T14:32:53;9.90;;;5.57;;
2041;SDS011;1026;51.460;7.252;2022-11-20T14:35:24;4.90;;;3.80;;
2041;SDS011;1026;51.460;7.252;2022-11-20T14:37:52;6.20;;;4.47;;
2041;SDS011;1026;51.460;7.252;2022-11-20T14:40:22;6.53;;;5.07;;
2041;SDS011;1026;51.460;7.252;2022-11-20T14:42:51;6.20;;;4.73;;
2041;SDS011;1026;51.460;7.252;2022-11-20T14:45:18;6.57;;;4.87;;
2041;SDS011;1026;51.460;7.252;2022-11-20T14:47:44;6.67;;;5.80;;
2041;SDS011;1026;51.460;7.252;2022-11-20T14:50:12;7.43;;;4.57;;
2041;SDS011;1026;51.460;7.252;2022-11-20T14:52:54;4.37;;;3.97;;
2041;SDS011;1026;51.460;7.252;2022-11-20T14:55:26;6.40;;;4.90;;
2041;SDS011;1026;51.460;7.252;2022-11-20T14:57:54;12.93;;;8.73;;
2041;SDS011;1026;51.460;7.252;2022-11-20T15:02:50;8.20;;;6.00;;
2041;SDS011;1026;51.460;7.252;2022-11-20T15:05:19;6.37;;;5.27;;
2041;SDS011;1026;51.460;7.252;2022-11-20T15:07:49;7.70;;;5.50;;
2041;SDS011;1026;51.460;7.252;2022-11-20T15:10:28;6.57;;;5.57;;
2041;SDS011;1026;51.460;7.252;2022-11-20T15:13:05;6.87;;;4.63;;
2041;SDS011;1026;51.460;7.252;2022-11-20T15:18:14;8.10;;;5.47;;
2041;SDS011;1026;51.460;7.252;2022-11-20T15:20:42;8.13;;;6.17;;
2041;SDS011;1026;51.460;7.252;2022-11-20T15:23:13;8.53;;;4.87;;
2041;SDS011;1026;51.460;7.252;2022-11-20T15:25:43;8.00;;;5.03;;
2041;SDS011;1026;51.460;7.252;2022-11-20T15:28:19;6.17;;;4.60;;
2041;SDS011;1026;51.460;7.252;2022-11-20T15:34:12;6.83;;;5.03;;
2041;SDS011;1026;51.460;7.252;2022-11-20T15:36:39;6.20;;;4.50;;
2041;SDS011;1026;51.460;7.252;2022-11-20T15:39:05;7.13;;;5.30;;
2041;SDS011;1026;51.460;7.252;2022-11-20T15:41:33;6.17;;;5.60;;
2041;SDS011;1026;51.460;7.252;2022-11-20T15:44:00;6.57;;;5.00;;
2041;SDS011;1026;51.460;7.252;2022-11-20T15:46:26;8.30;;;5.30;;
2041;SDS011;1026;51.460;7.252;2022-11-20T15:48:55;9.77;;;5.83;;
2041;SDS011;1026;51.460;7.252;2022-11-20T15:51:24;6.30;;;5.43;;
2041;SDS011;1026;51.460;7.252;2022-11-20T15:53:52;7.50;;;4.87;;
2041;SDS011;1026;51.460;7.252;2022-11-20T15:56:19;7.13;;;5.13;;
2041;SDS011;1026;51.460;7.252;2022-11-20T15:58:44;6.87;;;5.33;;
2041;SDS011;1026;51.460;7.252;2022-11-20T16:01:16;9.60;;;6.40;;
2041;SDS011;1026;51.460;7.252;2022-11-20T16:03:44;7.57;;;5.50;;
2041;SDS011;1026;51.460;7.252;2022-11-20T16:06:15;7.70;;;5.67;;
2041;SDS011;1026;51.460;7.252;2022-11-20T16:08:41;7.30;;;5.43;;
2041;SDS011;1026;51.460;7.252;2022-11-20T16:11:09;6.43;;;4.97;;
2041;SDS011;1026;51.460;7.252;2022-11-20T16:13:37;6.57;;;5.60;;
2041;SDS011;1026;51.460;7.252;2022-11-20T16:18:46;10.50;;;6.63;;
2041;SDS011;1026;51.460;7.252;2022-11-20T16:21:11;6.00;;;5.23;;
2041;SDS011;1026;51.460;7.252;2022-11-20T16:23:38;7.57;;;5.20;;
2041;SDS011;1026;51.460;7.252;2022-11-20T16:26:09;9.83;;;6.30;;
2041;SDS011;1026;51.460;7.252;2022-11-20T16:28:54;6.57;;;5.97;;
2041;SDS011;1026;51.460;7.252;2022-11-20T16:31:21;6.77;;;5.20;;
2041;SDS011;1026;51.460;7.252;2022-11-20T16:33:56;8.07;;;5.90;;
2041;SDS011;1026;51.460;7.252;2022-11-20T16:36:24;7.67;;;5.53;;
2041;SDS011;1026;51.460;7.252;2022-11-20T16:38:54;5.73;;;5.10;;
2041;SDS011;1026;51.460;7.252;2022-11-20T16:41:21;6.20;;;5.47;;
2041;SDS011;1026;51.460;7.252;2022-11-20T16:43:51;7.10;;;5.30;;
2041;SDS011;1026;51.460;7.252;2022-11-20T16:46:20;8.47;;;6.10;;
2041;SDS011;1026;51.460;7.252;2022-11-20T16:48:56;6.57;;;5.20;;
2041;SDS011;1026;51.460;7.252;2022-11-20T16:51:24;11.80;;;6.23;;
2041;SDS011;1026;51.460;7.252;2022-11-20T16:53:52;8.87;;;6.50;;
2041;SDS011;1026;51.460;7.252;2022-11-20T16:56:20;8.93;;;5.80;;
2041;SDS011;1026;51.460;7.252;2022-11-20T16:58:49;7.47;;;5.77;;
2041;SDS011;1026;51.460;7.252;2022-11-20T17:01:17;7.27;;;4.70;;